• Join FlightAware (Why Join?)
  • Login
  • US Flag 
01:17AM EDT


 

Airport Tracker/Info


-or-


 

Live Flight TrackerFlight Track Log ✈ GJS3706 ✈ 09-May-2013 ✈ KPWM - KORD

Flight Track Log - Related Links

Times and Time Zones

All times are in EDT time to prevent confusion due to time zone crossing. See the GJS3706 flight status page for this flight to view local times or setup timezone preferences in your user account.

Time Position Orientation Groundspeed Altitude Reporting Facility
EDT Latitude Longitude Course Direction KTS MPH feet Rate Location/Type
07:00AM 43.6853 -70.2092 255° West 231 266 3,300  Level Boston Center
07:01AM 43.7400 -70.2389 339° North 275 316 5,200 2,460 Climbing Boston Center
07:02AM 43.7608 -70.3444 285° West 239 275 8,300 2,760 Climbing Boston Center
07:03AM 43.7606 -70.4481 270° West 259 298 10,800 1,980 Climbing Boston Center
07:04AM 43.7522 -70.5661 264° West 303 349 12,300 1,680 Climbing Boston Center
07:05AM 43.7115 -70.8305 243° Southwest  Level FlightAware Approximate
07:05AM 43.7417 -70.6958 264° West 334 384 14,200  Level Boston Center
07:06AM 43.6655 -70.9559 255° West  Level FlightAware Approximate
07:06AM 43.7292 -70.8283 263° West 351 404 16,600  Level Boston Center
07:07AM 43.7183 -70.9664 264° West 357 411 18,100 1,680 Climbing Boston Center
07:09AM 43.7017 -71.1392 262° West 371 427 20,300 1,680 Climbing Boston Center
07:10AM 43.6908 -71.2917 264° West 382 440 21,900 1,500 Climbing Boston Center
07:11AM 43.6797 -71.4239 263° West 393 452 23,300 1,320 Climbing Boston Center
07:12AM 43.6664 -71.5819 263° West 401 461 24,600 1,260 Climbing Boston Center
07:13AM 43.6528 -71.7400 263° West 413 475 25,900 1,260 Climbing Boston Center
07:14AM 43.6369 -71.9036 262° West 423 487 27,200 1,200 Climbing Boston Center
07:15AM 43.6231 -72.0644 263° West 428 493 28,300 1,140 Climbing Boston Center
07:16AM 43.6089 -72.2308 263° West 428 493 29,500 1,200 Climbing Boston Center
07:17AM 43.5925 -72.3972 262° West 433 498 30,700 1,200 Climbing Boston Center
07:18AM 43.5778 -72.5547 263° West 433 498 31,900 1,320 Climbing Boston Center
07:19AM 43.5631 -72.7208 263° West 433 498 33,400 1,200 Climbing Boston Center
07:20AM 43.5458 -72.8783 261° West 428 493 34,300 780 Climbing Boston Center
07:21AM 43.5242 -73.0528 260° West 428 493 35,000 600 Climbing Boston Center
07:22AM 43.5064 -73.2186 262° West 428 493 35,600 600 Climbing Boston Center
07:23AM 43.4906 -73.3817 262° West 428 493 36,300 720 Climbing Boston Center
07:24AM 43.4725 -73.5472 262° West 433 498 37,100 600 Climbing Boston Center
07:25AM 43.4542 -73.7100 261° West 433 498 37,600 420 Climbing Boston Center
07:26AM 43.4400 -73.8411 262° West 433 498 38,000 180 Climbing Boston Center
07:27AM 43.4186 -74.0436 262° West 443 510 38,000  Level Boston Center
07:28AM 43.4019 -74.1947 261° West 448 516 38,000  Level Boston Center
07:29AM 43.3822 -74.3714 261° West 455 524 38,000  Level Boston Center
07:30AM 43.3647 -74.5450 262° West 460 529 38,000  Level Boston Center
07:31AM 43.3447 -74.7156 261° West 466 536 38,000  Level Boston Center
07:32AM 43.3244 -74.8861 261° West 461 531 38,000  Level Boston Center
07:33AM 43.3042 -75.0564 261° West 461 531 38,000  Level Boston Center
07:34AM 43.2811 -75.2322 260° West 467 537 38,000  Level Boston Center
07:35AM 43.2597 -75.4194 261° West 461 531 38,000  Level Boston Center
07:36AM 43.2406 -75.5897 261° West 461 531 38,000 -60 Level Boston Center
07:37AM 43.2192 -75.7597 260° West 466 536 37,900  Descending Boston Center
07:38AM 43.1972 -75.9322 260° West 466 536 38,000  Climbing Boston Center
07:40AM 43.1608 -76.3078 263° West 456 525 38,000  Level Cleveland Center
07:41AM 43.1608 -76.4844 270° West 456 525 38,000  Level Cleveland Center
07:42AM 43.1606 -76.6581 270° West 462 532 38,000  Level Cleveland Center
07:43AM 43.1586 -76.8489 269° West 462 532 38,000  Level Cleveland Center
07:44AM 43.1578 -77.0169 270° West 462 532 38,000  Level Cleveland Center
07:45AM 43.1586 -77.1878 270° West 462 532 38,000  Level Cleveland Center
07:46AM 43.1550 -77.3558 268° West 457 526 38,000  Level Cleveland Center
07:47AM 43.1533 -77.5211 269° West 446 513 38,000  Level Cleveland Center
07:48AM 43.1536 -77.6889 270° West 446 513 38,000  Level Cleveland Center
07:49AM 43.1492 -77.8514 268° West 440 506 38,000  Level Cleveland Center
07:50AM 43.1467 -78.0194 269° West 440 506 38,000  Level Cleveland Center
07:51AM 43.1461 -78.1844 270° West 440 506 38,000  Level Cleveland Center
07:52AM 43.1431 -78.3497 269° West 440 506 38,000  Level Cleveland Center
07:53AM 43.1378 -78.5119 268° West 440 506 38,000  Level Cleveland Center
07:54AM 43.1361 -78.6600 269° West 440 506 38,000  Level Cleveland Center
07:55AM 43.1303 -78.8194 267° West 435 501 38,000  Level Cleveland Center
07:56AM 43.1264 -78.9817 268° West 435 501 38,000  Level Cleveland Center
07:57AM 43.1203 -79.1411 267° West 430 495 38,000  Level Cleveland Center
07:58AM 43.1000 -79.3167 261° West 430 495 38,000  Level Toronto Center
07:59AM 43.1000 -79.5000 270° West 450 518 38,000  Level Toronto Center
08:00AM 43.0833 -79.6833 263° West 450 518 38,000  Level Toronto Center
08:01AM 43.0833 -79.8333 270° West 450 518 38,000  Level Toronto Center
08:02AM 43.0833 -80.0000 270° West 450 518 38,000  Level Toronto Center
08:03AM 43.0667 -80.1833 263° West 450 518 38,000  Level Toronto Center
08:04AM 43.0667 -80.3333 270° West 450 518 38,000  Level Toronto Center
08:05AM 43.0667 -80.5167 270° West 450 518 38,000  Level Toronto Center
08:06AM 43.0500 -80.7000 263° West 450 518 38,000  Level Toronto Center
08:07AM 43.0333 -80.8667 262° West 440 506 38,000  Level Toronto Center
08:08AM 43.0167 -81.0167 261° West 440 506 38,000  Level Toronto Center
08:09AM 43.0167 -81.1833 270° West 430 495 38,000  Level Toronto Center
08:10AM 43.0167 -81.3500 270° West 430 495 38,000  Level Toronto Center
08:11AM 43.0167 -81.5333 270° West 430 495 38,000  Level Toronto Center
08:12AM 43.0167 -81.6833 270° West 430 495 38,000  Level Toronto Center
08:13AM 43.0167 -81.8500 270° West 430 495 38,000  Level Toronto Center
08:14AM 43.0000 -82.0000 261° West 430 495 38,000  Level Toronto Center
08:15AM 43.0000 -82.1667 270° West 430 495 38,000  Level Toronto Center
08:16AM 43.0000 -82.3167 270° West 430 495 38,000  Level Toronto Center
08:17AM 43.0000 -82.4833 270° West 430 495 38,000 -300 Level Toronto Center
08:18AM 43.0067 -82.6386 273° West 437 503 37,500 -840 Descending Cleveland Center
08:19AM 43.0017 -82.8003 268° West 437 503 36,500 -1,020 Descending Cleveland Center
08:20AM 42.9964 -82.9592 267° West 437 503 35,500 -1,020 Descending Cleveland Center
08:21AM 42.9911 -83.1064 267° West 437 503 34,500 -1,020 Descending Cleveland Center
08:22AM 42.9850 -83.2794 267° West 448 516 33,500 -1,020 Descending Cleveland Center
08:23AM 42.9792 -83.4411 267° West 442 509 32,500 -780 Descending Cleveland Center
08:24AM 42.9728 -83.6053 267° West 431 496 32,000 -300 Descending Cleveland Center
08:25AM 42.9556 -83.7803 262° West 437 503 32,000  Level Cleveland Center
08:26AM 42.9469 -83.9417 266° West 437 503 32,000  Level Cleveland Center
08:27AM 42.9342 -84.0883 263° West 439 505 32,000  Level Cleveland Center
08:28AM 42.9167 -84.2492 262° West 439 505 32,000  Level Cleveland Center
08:29AM 42.8939 -84.4897 263° West 431 496 32,000  Level Chicago Center
08:30AM 42.8742 -84.6825 262° West 430 495 32,000  Level Chicago Center
08:32AM 42.8575 -84.8411 262° West 425 489 32,000  Level Chicago Center
08:33AM 42.8406 -84.9992 262° West 422 486 32,000  Level Chicago Center
08:34AM 42.8239 -85.1572 262° West 424 488 32,000  Level Chicago Center
08:35AM 42.8061 -85.3158 261° West 424 488 32,000 -540 Level Chicago Center
08:36AM 42.7892 -85.4758 262° West 424 488 31,000 -1,560 Descending Chicago Center
08:37AM 42.7625 -85.6358 257° West 432 497 28,800 -2,400 Descending Chicago Center
08:38AM 42.7278 -85.8264 256° West 430 495 26,100 -2,400 Descending Chicago Center
08:39AM 42.7003 -85.9792 256° West 416 479 23,900 -2,160 Descending Chicago Center
08:40AM 42.6717 -86.1269 255° West 404 465 21,700 -1,980 Descending Chicago Center
08:41AM 42.6469 -86.2697 257° West 392 451 19,900 -1,620 Descending Chicago Center
08:42AM 42.6206 -86.4042 255° West 372 428 18,400 -1,500 Descending Chicago Center
08:43AM 42.5933 -86.5408 255° West 375 432 16,900 -1,500 Descending Chicago Center
08:44AM 42.5678 -86.6767 256° West 373 429 15,300 -1,740 Descending Chicago Center
08:45AM 42.5322 -86.8333 253° West 363 418 13,400 -1,740 Descending Chicago Center
08:46AM 42.4997 -86.9539 250° West 346 398 11,800 -1,620 Descending Chicago Center
08:47AM 42.4656 -87.0731 249° West 339 390 10,100 -960 Descending Chicago Center
08:48AM 42.4361 -87.1881 251° West 322 371 9,900 -540 Descending Chicago Center
08:49AM 42.4078 -87.2836 248° West 280 322 9,000 -660 Descending Chicago Center
08:50AM 42.3483 -87.3281 209° Southwest 279 321 8,600 -780 Descending Chicago Center
08:51AM 42.2625 -87.3347 183° South 278 320 7,500 -780 Descending Chicago Center
08:52AM 42.1864 -87.3233 174° South 275 316 7,000 -300 Descending Chicago Center
08:53AM 42.1186 -87.3111 172° South 247 284 7,000  Level Chicago Center
08:54AM 42.0442 -87.2883 167° South 233 268 7,000  Level Chicago Center
08:55AM 42.0014 -87.3350 219° Southwest 236 272 7,000  Level Chicago Center
08:56AM 41.9833 -87.3833 243° Southwest 230 265 7,000 -240 Level Chicago TRACON
08:57AM 41.9833 -87.4667 270° West 233 268 6,700 -840 Descending Chicago TRACON
08:58AM 41.9833 -87.5500 270° West 229 264 5,400 -1,200 Descending Chicago TRACON
08:59AM 41.9833 -87.6333 270° West 227 261 4,300 -1,200 Descending Chicago TRACON
09:00AM 41.9833 -87.7167 270° West 212 244 3,100 -1,140 Descending Chicago TRACON
09:01AM 41.9833 -87.7833 270° West 189 217 2,100 -900 Descending Chicago TRACON
09:02AM 41.9833 -87.8500 270° West 135 155 1,300 -480 Descending Chicago TRACON
09:04AM 41.9839 -87.9186 271° West 148 170 800 -300 Descending Chicago Center